Time;durP1;ratioP1;P1;durP2;ratioP2;P2;SDS_P1;SDS_P2;PMS_P1;PMS_P2;Temp;Humidity;BMP_temperature;BMP_pressure;BME280_temperature;BME280_humidity;BME280_pressure;Samples;Min_cycle;Max_cycle;Signal;HPM_P1;HPM_P2
2023/06/16 00:01:15;;;;;;;;;;;;;;;16.22;100.00;96950.13;110123;1246;69222;-73
2023/06/16 00:03:49;;;;;;;;;;;;;;;16.22;100.00;96945.11;110154;1240;59683;-73
2023/06/16 00:06:19;;;;;;;;;;;;;;;16.21;100.00;96941.63;110241;1242;59707;-74
2023/06/16 00:08:54;;;;;;;;;;;;;;;16.21;100.00;96941.27;110468;1242;71222;-72
2023/06/16 00:11:27;;;;;;;;;;;;;;;16.22;100.00;96938.44;110209;1244;69259;-74
2023/06/16 00:13:57;;;;;;;;;;;;;;;16.22;100.00;96936.41;110178;1243;69174;-73
2023/06/16 00:16:26;;;;;;;;;;;;;;;16.26;100.00;96934.66;110188;1244;59697;-74
2023/06/16 00:18:59;;;;;;;;;;;;;;;16.27;100.00;96928.95;110180;1242;59663;-73
2023/06/16 00:21:35;;;;;;;;;;;;;;;16.28;100.00;96930.38;110169;1241;71218;-74
2023/06/16 00:24:06;;;;;;;;;;;;;;;16.30;100.00;96926.52;110300;1242;70422;-74
2023/06/16 00:26:39;;;;;;;;;;;;;;;16.29;100.00;96921.10;110341;1242;69110;-74
2023/06/16 00:29:09;;;;;;;;;;;;;;;16.28;100.00;96917.22;110331;1242;59705;-73
2023/06/16 00:31:38;;;;;;;;;;;;;;;16.27;100.00;96913.92;110298;1241;59672;-74
2023/06/16 00:34:10;;;;;;;;;;;;;;;16.25;100.00;96912.42;110290;1242;72008;-73
2023/06/16 00:36:40;;;;;;;;;;;;;;;16.24;100.00;96910.80;110226;1241;69084;-73
2023/06/16 00:39:10;;;;;;;;;;;;;;;16.22;100.00;96908.13;110274;1242;69863;-72
2023/06/16 00:41:41;;;;;;;;;;;;;;;16.21;100.00;96908.21;110192;1242;59722;-73
2023/06/16 00:44:12;;;;;;;;;;;;;;;16.20;100.00;96906.73;110192;1242;59681;-73
2023/06/16 00:46:43;;;;;;;;;;;;;;;16.20;100.00;96904.13;110190;1243;71828;-74
2023/06/16 00:49:13;;;;;;;;;;;;;;;16.21;100.00;96906.83;110213;1242;69232;-73
2023/06/16 00:51:44;;;;;;;;;;;;;;;16.21;100.00;96906.30;110108;1244;69360;-74
2023/06/16 00:54:15;;;;;;;;;;;;;;;16.22;100.00;96903.41;110149;1241;59721;-73
2023/06/16 00:56:45;;;;;;;;;;;;;;;16.22;100.00;96900.55;110335;1242;59683;-74
2023/06/16 00:59:15;;;;;;;;;;;;;;;16.23;100.00;96901.77;110175;1242;71214;-73
2023/06/16 01:01:50;;;;;;;;;;;;;;;16.23;100.00;96899.76;110200;1243;69147;-73
2023/06/16 01:04:21;;;;;;;;;;;;;;;16.23;100.00;96898.38;110172;1242;69599;-73
2023/06/16 01:06:59;;;;;;;;;;;;;;;16.23;100.00;96895.21;110174;1242;60095;-74
2023/06/16 01:10:03;;;;;;;;;;;;;;;16.23;100.00;96887.70;110196;1241;60096;-73
2023/06/16 01:12:39;;;;;;;;;;;;;;;16.23;100.00;96884.54;110170;1242;70432;-73
2023/06/16 01:15:12;;;;;;;;;;;;;;;16.22;100.00;96881.66;110195;1242;68368;-73
2023/06/16 01:17:45;;;;;;;;;;;;;;;16.20;100.00;96879.34;110126;1245;69287;-74
2023/06/16 01:20:16;;;;;;;;;;;;;;;16.19;100.00;96880.73;110184;1241;59708;-73
2023/06/16 01:22:54;;;;;;;;;;;;;;;16.18;100.00;96878.88;110111;1242;59684;-73
2023/06/16 01:25:28;;;;;;;;;;;;;;;16.18;100.00;96877.62;110149;1242;70645;-73
2023/06/16 01:28:00;;;;;;;;;;;;;;;16.18;100.00;96876.73;110166;1241;68725;-73
2023/06/16 01:30:32;;;;;;;;;;;;;;;16.19;100.00;96874.88;110215;1241;67625;-73
2023/06/16 01:33:03;;;;;;;;;;;;;;;16.19;100.00;96866.98;110189;1241;59806;-71
2023/06/16 01:35:33;;;;;;;;;;;;;;;16.19;100.00;96861.34;110220;1242;59714;-72
2023/06/16 01:38:03;;;;;;;;;;;;;;;16.19;100.00;96857.31;110208;1242;70747;-71
2023/06/16 01:40:34;;;;;;;;;;;;;;;16.17;100.00;96855.55;110169;1241;69653;-72
2023/06/16 01:43:06;;;;;;;;;;;;;;;16.16;100.00;96848.63;110296;1242;69188;-72
2023/06/16 01:45:39;;;;;;;;;;;;;;;16.15;100.00;96849.83;110191;1240;59747;-72
2023/06/16 01:48:09;;;;;;;;;;;;;;;16.14;100.00;96846.07;110166;1242;59731;-72
2023/06/16 01:50:40;;;;;;;;;;;;;;;16.12;100.00;96842.88;110194;1245;71353;-72
2023/06/16 01:53:11;;;;;;;;;;;;;;;16.12;100.00;96841.03;110196;1249;68217;-73
2023/06/16 01:55:49;;;;;;;;;;;;;;;16.11;100.00;96841.34;110165;1240;69331;-73
2023/06/16 01:58:22;;;;;;;;;;;;;;;16.09;100.00;96839.27;110204;1240;59732;-73
2023/06/16 02:01:14;;;;;;;;;;;;;;;16.09;100.00;96837.84;110342;1241;59666;-73
2023/06/16 02:03:50;;;;;;;;;;;;;;;16.07;100.00;96832.88;110231;1242;71348;-74
2023/06/16 02:06:25;;;;;;;;;;;;;;;16.08;100.00;96833.01;110248;1242;68267;-70
2023/06/16 02:08:59;;;;;;;;;;;;;;;16.08;100.00;96832.96;110295;1244;69249;-74
2023/06/16 02:11:29;;;;;;;;;;;;;;;16.09;100.00;96831.29;110233;1242;59687;-73
2023/06/16 02:14:00;;;;;;;;;;;;;;;16.10;100.00;96826.23;110493;1242;59660;-74
2023/06/16 02:16:42;;;;;;;;;;;;;;;16.11;100.00;96825.42;110486;1241;70672;-74
2023/06/16 02:19:16;;;;;;;;;;;;;;;16.12;100.00;96822.35;110228;1249;68250;-75
2023/06/16 02:21:46;;;;;;;;;;;;;;;16.13;100.00;96822.65;110329;1241;68648;-74
2023/06/16 02:24:20;;;;;;;;;;;;;;;16.13;100.00;96822.96;110286;1243;59699;-74
2023/06/16 02:26:53;;;;;;;;;;;;;;;16.14;100.00;96820.76;110217;1240;59731;-74
2023/06/16 02:29:24;;;;;;;;;;;;;;;16.15;100.00;96817.33;110193;1240;71419;-74
2023/06/16 02:31:56;;;;;;;;;;;;;;;16.16;100.00;96817.39;110203;1240;68382;-73
2023/06/16 02:34:28;;;;;;;;;;;;;;;16.16;100.00;96816.80;110116;1244;68389;-74
2023/06/16 02:37:00;;;;;;;;;;;;;;;16.16;100.00;96810.14;110307;1244;59739;-74
2023/06/16 02:39:31;;;;;;;;;;;;;;;16.16;100.00;96808.09;110355;1240;59707;-75
2023/06/16 02:42:01;;;;;;;;;;;;;;;16.15;100.00;96808.52;110302;1244;70511;-74
2023/06/16 02:44:34;;;;;;;;;;;;;;;16.16;100.00;96809.52;110204;1242;69193;-75
2023/06/16 02:47:05;;;;;;;;;;;;;;;16.16;100.00;96806.48;110103;1244;69324;-75
2023/06/16 02:49:36;;;;;;;;;;;;;;;16.17;100.00;96809.71;110242;1241;59693;-72
2023/06/16 02:52:08;;;;;;;;;;;;;;;16.17;100.00;96805.27;110139;1242;59617;-73
2023/06/16 02:54:40;;;;;;;;;;;;;;;16.19;100.00;96801.42;110106;1243;71391;-73
2023/06/16 02:57:11;;;;;;;;;;;;;;;16.20;100.00;96800.20;109887;1244;69067;-73
2023/06/16 02:59:47;;;;;;;;;;;;;;;16.22;100.00;96799.91;110123;1242;68549;-75
2023/06/16 03:02:18;;;;;;;;;;;;;;;16.23;100.00;96798.52;110174;1242;59758;-75
2023/06/16 03:04:57;;;;;;;;;;;;;;;16.24;100.00;96801.36;110152;1243;59648;-73
2023/06/16 03:07:31;;;;;;;;;;;;;;;16.27;100.00;96798.99;110187;1242;71229;-74
2023/06/16 03:10:03;;;;;;;;;;;;;;;16.27;100.00;96792.25;110141;1241;69045;-73
2023/06/16 03:12:43;;;;;;;;;;;;;;;16.28;100.00;96791.65;110150;1240;69073;-73
2023/06/16 03:15:14;;;;;;;;;;;;;;;16.30;100.00;96789.70;110156;1244;59730;-73
2023/06/16 03:17:43;;;;;;;;;;;;;;;16.31;100.00;96788.19;110173;1244;59757;-74
2023/06/16 03:20:13;;;;;;;;;;;;;;;16.34;100.00;96787.23;110408;1242;69656;-74
2023/06/16 03:22:49;;;;;;;;;;;;;;;16.36;100.00;96787.51;110196;1242;69064;-74
2023/06/16 03:25:21;;;;;;;;;;;;;;;16.38;100.00;96791.16;110143;1244;69264;-74
2023/06/16 03:27:51;;;;;;;;;;;;;;;16.40;100.00;96789.86;110285;1244;59999;-71
2023/06/16 03:30:25;;;;;;;;;;;;;;;16.43;100.00;96789.77;110169;1244;59734;-74
2023/06/16 03:33:06;;;;;;;;;;;;;;;16.46;100.00;96786.30;110325;1243;70686;-74
2023/06/16 03:35:37;;;;;;;;;;;;;;;16.48;100.00;96788.84;110336;1243;68477;-74
2023/06/16 03:38:09;;;;;;;;;;;;;;;16.50;100.00;96787.71;110318;1241;69262;-74
2023/06/16 03:40:41;;;;;;;;;;;;;;;16.54;100.00;96786.23;110289;1240;59763;-73
2023/06/16 03:43:11;;;;;;;;;;;;;;;16.55;100.00;96785.57;110310;1244;59763;-74
2023/06/16 03:45:40;;;;;;;;;;;;;;;16.58;100.00;96791.44;110334;1240;70814;-74
2023/06/16 03:48:09;;;;;;;;;;;;;;;16.60;100.00;96793.90;110125;1241;67931;-73
2023/06/16 03:50:46;;;;;;;;;;;;;;;16.56;100.00;96793.92;110207;1242;68631;-74
2023/06/16 03:53:15;;;;;;;;;;;;;;;16.51;100.00;96797.32;110120;1244;59754;-73
2023/06/16 03:55:47;;;;;;;;;;;;;;;16.48;100.00;96795.98;110184;1244;59721;-74
2023/06/16 03:58:17;;;;;;;;;;;;;;;16.47;100.00;96797.09;110109;1241;71706;-74
2023/06/16 04:00:47;;;;;;;;;;;;;;;16.45;100.00;96796.40;110128;1244;69254;-74
2023/06/16 04:03:18;;;;;;;;;;;;;;;16.36;100.00;96796.88;110126;1240;69577;-74
2023/06/16 04:05:49;;;;;;;;;;;;;;;16.34;100.00;96797.06;110212;1242;59763;-74
2023/06/16 04:08:19;;;;;;;;;;;;;;;16.31;100.00;96795.37;110296;1241;59740;-74
2023/06/16 04:10:49;;;;;;;;;;;;;;;16.30;100.00;96798.86;109983;1240;70623;-75
2023/06/16 04:13:18;;;;;;;;;;;;;;;16.31;100.00;96801.38;110297;1240;68585;-74
2023/06/16 04:15:47;;;;;;;;;;;;;;;16.33;100.00;96800.52;110284;1240;69219;-72
2023/06/16 04:18:17;;;;;;;;;;;;;;;16.34;100.00;96798.31;110136;1244;59674;-73
2023/06/16 04:20:47;;;;;;;;;;;;;;;16.34;100.00;96798.94;110221;1240;59716;-74
2023/06/16 04:23:18;;;;;;;;;;;;;;;16.36;100.00;96796.96;110522;1240;70611;-73
2023/06/16 04:25:48;;;;;;;;;;;;;;;16.41;100.00;96795.06;110256;1243;68838;-73
2023/06/16 04:28:17;;;;;;;;;;;;;;;16.47;100.00;96796.23;110148;1243;69293;-74
2023/06/16 04:30:50;;;;;;;;;;;;;;;16.50;100.00;96798.63;110298;1242;59731;-73
2023/06/16 04:33:22;;;;;;;;;;;;;;;16.56;100.00;96798.04;110264;1240;59698;-73
2023/06/16 04:35:53;;;;;;;;;;;;;;;16.61;100.00;96800.72;110185;1240;70421;-73
2023/06/16 04:38:23;;;;;;;;;;;;;;;16.63;100.00;96799.54;110183;1242;68488;-73
2023/06/16 04:40:52;;;;;;;;;;;;;;;16.65;100.00;96797.92;110261;1240;68721;-73
2023/06/16 04:43:21;;;;;;;;;;;;;;;16.70;100.00;96797.92;109867;1240;59677;-74
2023/06/16 04:45:50;;;;;;;;;;;;;;;16.75;100.00;96801.13;110156;1241;59657;-72
2023/06/16 04:48:21;;;;;;;;;;;;;;;16.81;100.00;96805.91;110185;1240;71324;-73
2023/06/16 04:50:52;;;;;;;;;;;;;;;16.88;100.00;96805.34;110189;1244;68275;-73
2023/06/16 04:53:21;;;;;;;;;;;;;;;16.94;100.00;96800.83;110011;1241;69869;-73
2023/06/16 04:55:50;;;;;;;;;;;;;;;17.01;100.00;96791.05;110178;1242;59644;-73
2023/06/16 04:58:20;;;;;;;;;;;;;;;17.09;100.00;96791.87;110170;1241;59699;-73
2023/06/16 05:00:50;;;;;;;;;;;;;;;17.16;100.00;96791.33;110179;1241;71151;-73
2023/06/16 05:03:19;;;;;;;;;;;;;;;17.20;100.00;96795.64;110191;1245;68469;-73
2023/06/16 05:05:49;;;;;;;;;;;;;;;17.25;100.00;96800.55;110168;1242;69096;-73
2023/06/16 05:08:18;;;;;;;;;;;;;;;17.28;100.00;96801.54;110204;1244;59707;-75
2023/06/16 05:10:48;;;;;;;;;;;;;;;17.31;100.00;96801.90;110136;1242;59712;-73
2023/06/16 05:13:17;;;;;;;;;;;;;;;17.40;100.00;96802.83;110179;1242;70891;-73
2023/06/16 05:15:46;;;;;;;;;;;;;;;17.48;100.00;96802.79;110181;1241;69689;-72
2023/06/16 05:18:16;;;;;;;;;;;;;;;17.59;100.00;96803.60;110111;1241;69204;-72
2023/06/16 05:20:45;;;;;;;;;;;;;;;17.66;100.00;96801.66;110005;1241;59107;-74
2023/06/16 05:23:14;;;;;;;;;;;;;;;17.73;100.00;96805.55;110172;1244;59618;-75
2023/06/16 05:25:45;;;;;;;;;;;;;;;17.76;100.00;96807.67;110217;1241;71431;-75
2023/06/16 05:28:14;;;;;;;;;;;;;;;17.78;100.00;96807.46;110760;1240;68476;-73
2023/06/16 05:30:43;;;;;;;;;;;;;;;17.74;100.00;96811.58;110164;1241;68511;-74
2023/06/16 05:33:13;;;;;;;;;;;;;;;17.73;100.00;96813.40;110191;1241;59738;-73
2023/06/16 05:35:42;;;;;;;;;;;;;;;17.75;100.00;96813.08;110163;1243;59662;-73
2023/06/16 05:38:11;;;;;;;;;;;;;;;17.76;100.00;96816.43;110209;1241;72002;-75
2023/06/16 05:40:40;;;;;;;;;;;;;;;17.72;100.00;96817.29;110158;1241;68570;-73
2023/06/16 05:43:09;;;;;;;;;;;;;;;17.67;100.00;96819.45;110160;1244;68517;-73
2023/06/16 05:45:39;;;;;;;;;;;;;;;17.66;100.00;96823.70;110215;1240;59744;-73
2023/06/16 05:48:09;;;;;;;;;;;;;;;17.62;100.00;96828.23;110197;1244;59735;-75
2023/06/16 05:50:38;;;;;;;;;;;;;;;17.64;100.00;96827.27;110221;1242;71397;-71
2023/06/16 05:53:07;;;;;;;;;;;;;;;17.65;100.00;96821.42;110206;1241;70361;-73
2023/06/16 05:55:37;;;;;;;;;;;;;;;17.65;100.00;96824.36;110192;1242;69264;-73
2023/06/16 05:58:07;;;;;;;;;;;;;;;17.71;100.00;96824.42;110148;1246;60241;-75
2023/06/16 06:00:36;;;;;;;;;;;;;;;17.73;100.00;96822.48;110106;1244;60056;-74
2023/06/16 06:03:08;;;;;;;;;;;;;;;17.74;100.00;96823.20;110091;1244;71616;-73
2023/06/16 06:05:38;;;;;;;;;;;;;;;17.79;100.00;96827.29;110137;1241;69295;-74
2023/06/16 06:08:08;;;;;;;;;;;;;;;17.80;100.00;96828.15;110163;1241;69277;-72
2023/06/16 06:10:38;;;;;;;;;;;;;;;17.88;100.00;96829.98;110142;1244;59726;-75
2023/06/16 06:13:07;;;;;;;;;;;;;;;17.92;100.00;96833.55;110140;1243;59734;-74
2023/06/16 06:15:38;;;;;;;;;;;;;;;17.97;100.00;96833.58;110149;1240;71210;-75
2023/06/16 06:18:10;;;;;;;;;;;;;;;18.06;100.00;96836.08;110135;1243;69813;-75
2023/06/16 06:20:43;;;;;;;;;;;;;;;18.16;100.00;96834.64;110266;1241;69865;-73
2023/06/16 06:23:12;;;;;;;;;;;;;;;18.22;100.00;96840.52;110215;1244;59760;-75
2023/06/16 06:25:42;;;;;;;;;;;;;;;18.41;100.00;96837.63;110114;1243;59661;-73
2023/06/16 06:28:13;;;;;;;;;;;;;;;18.55;100.00;96841.11;110191;1240;71757;-74
2023/06/16 06:30:42;;;;;;;;;;;;;;;18.70;100.00;96839.00;110236;1242;69053;-75
2023/06/16 06:33:11;;;;;;;;;;;;;;;18.88;100.00;96839.09;110367;1244;69848;-73
2023/06/16 06:35:40;;;;;;;;;;;;;;;18.96;100.00;96840.45;110201;1241;59777;-75
2023/06/16 06:38:10;;;;;;;;;;;;;;;19.06;100.00;96842.13;110186;1242;59682;-75
2023/06/16 06:40:39;;;;;;;;;;;;;;;19.17;100.00;96841.89;110195;1240;71412;-74
2023/06/16 06:43:08;;;;;;;;;;;;;;;19.13;100.00;96842.92;110274;1240;68880;-74
2023/06/16 06:45:45;;;;;;;;;;;;;;;19.25;100.00;96841.48;110195;1242;69811;-73
2023/06/16 06:48:16;;;;;;;;;;;;;;;19.45;100.00;96842.16;109896;1242;405727;-74
2023/06/16 06:50:48;;;;;;;;;;;;;;;19.60;100.00;96843.17;110287;1244;59675;-73
2023/06/16 06:53:16;;;;;;;;;;;;;;;19.79;100.00;96841.42;110141;1243;71943;-74
2023/06/16 06:55:47;;;;;;;;;;;;;;;19.96;100.00;96842.64;110162;1242;70208;-74
2023/06/16 06:58:17;;;;;;;;;;;;;;;19.88;99.33;96847.54;110197;1244;69828;-74
2023/06/16 07:00:46;;;;;;;;;;;;;;;19.83;98.99;96847.15;110214;1242;59669;-75
2023/06/16 07:03:14;;;;;;;;;;;;;;;19.89;100.00;96847.06;110315;1242;59624;-74
2023/06/16 07:05:43;;;;;;;;;;;;;;;20.02;100.00;96848.23;110282;1240;71397;-75
2023/06/16 07:08:12;;;;;;;;;;;;;;;19.89;100.00;96848.05;110312;1242;69221;-73
2023/06/16 07:10:42;;;;;;;;;;;;;;;19.86;100.00;96844.87;110269;1240;69301;-75
2023/06/16 07:13:11;;;;;;;;;;;;;;;19.93;100.00;96844.92;110274;1240;59689;-74
2023/06/16 07:15:40;;;;;;;;;;;;;;;19.91;100.00;96842.92;110299;1240;59710;-74
2023/06/16 07:18:09;;;;;;;;;;;;;;;19.92;100.00;96844.70;110304;1242;71228;-75
2023/06/16 07:20:38;;;;;;;;;;;;;;;19.99;100.00;96844.31;110267;1240;68529;-73
2023/06/16 07:23:07;;;;;;;;;;;;;;;20.01;100.00;96844.63;110275;1240;69924;-73
2023/06/16 07:25:38;;;;;;;;;;;;;;;20.14;100.00;96847.64;110182;1241;59746;-74
2023/06/16 07:28:07;;;;;;;;;;;;;;;20.22;99.92;96850.92;110173;1242;59679;-76
2023/06/16 07:30:36;;;;;;;;;;;;;;;20.15;100.00;96848.46;110300;1243;71376;-74
2023/06/16 07:33:06;;;;;;;;;;;;;;;20.01;99.91;96848.18;110154;1242;69217;-75
2023/06/16 07:35:34;;;;;;;;;;;;;;;19.93;100.00;96846.52;110629;1240;68544;-75
2023/06/16 07:38:03;;;;;;;;;;;;;;;19.93;100.00;96846.35;110386;1242;59754;-74
2023/06/16 07:40:32;;;;;;;;;;;;;;;19.74;99.97;96850.54;110255;1242;59728;-75
2023/06/16 07:43:02;;;;;;;;;;;;;;;19.88;100.00;96847.10;110202;1240;71982;-76
2023/06/16 07:45:33;;;;;;;;;;;;;;;19.96;100.00;96846.59;110288;1242;69310;-71
2023/06/16 07:48:02;;;;;;;;;;;;;;;20.00;100.00;96847.27;110292;1242;69715;-72
2023/06/16 07:50:31;;;;;;;;;;;;;;;20.09;100.00;96843.21;110142;1240;59697;-76
2023/06/16 07:53:01;;;;;;;;;;;;;;;20.13;99.55;96845.87;110305;1242;59758;-76
2023/06/16 07:55:29;;;;;;;;;;;;;;;20.24;98.95;96843.47;110292;1242;70621;-76
2023/06/16 07:57:58;;;;;;;;;;;;;;;20.37;98.20;96850.08;110285;1240;69717;-75
2023/06/16 08:00:26;;;;;;;;;;;;;;;20.50;99.30;96847.55;110284;1244;69281;-75
2023/06/16 08:02:55;;;;;;;;;;;;;;;20.60;97.84;96849.39;110253;1241;59759;-75
2023/06/16 08:05:25;;;;;;;;;;;;;;;20.64;96.91;96852.61;110235;1240;59682;-76
2023/06/16 08:07:53;;;;;;;;;;;;;;;20.82;97.06;96854.23;110277;1244;71414;-76
2023/06/16 08:10:23;;;;;;;;;;;;;;;20.93;95.19;96857.56;110293;1242;68187;-77
2023/06/16 08:12:52;;;;;;;;;;;;;;;21.18;96.11;96860.30;110273;1242;68543;-77
2023/06/16 08:15:21;;;;;;;;;;;;;;;21.33;92.70;96856.06;110257;1242;59755;-76
2023/06/16 08:17:50;;;;;;;;;;;;;;;21.45;91.56;96855.88;110267;1241;59750;-77
2023/06/16 08:20:20;;;;;;;;;;;;;;;21.45;93.40;96849.85;110273;1240;71421;-76
2023/06/16 08:22:49;;;;;;;;;;;;;;;21.60;92.65;96850.94;110249;1241;68468;-78
2023/06/16 08:25:18;;;;;;;;;;;;;;;21.69;92.11;96853.00;110262;1244;69845;-77
2023/06/16 08:27:47;;;;;;;;;;;;;;;21.72;91.26;96850.33;110244;1240;59776;-75
2023/06/16 08:30:16;;;;;;;;;;;;;;;21.75;89.05;96848.10;110302;1240;59635;-75
2023/06/16 08:32:45;;;;;;;;;;;;;;;21.76;88.41;96849.77;110279;1242;71799;-76
2023/06/16 08:35:15;;;;;;;;;;;;;;;21.83;90.66;96840.83;110257;1241;69238;-76
2023/06/16 08:37:44;;;;;;;;;;;;;;;21.97;91.92;96840.64;110282;1241;69297;-76
2023/06/16 08:40:13;;;;;;;;;;;;;;;22.01;92.57;96835.67;111044;1241;59726;-75
2023/06/16 08:42:42;;;;;;;;;;;;;;;22.22;92.78;96841.73;110506;1240;59684;-76
2023/06/16 08:45:12;;;;;;;;;;;;;;;22.28;88.97;96840.24;110214;1244;70635;-77
2023/06/16 08:47:42;;;;;;;;;;;;;;;22.13;86.07;96833.41;110296;1242;69228;-77
2023/06/16 08:50:12;;;;;;;;;;;;;;;22.21;86.50;96831.58;110323;1242;68215;-76
2023/06/16 08:52:42;;;;;;;;;;;;;;;22.17;90.56;96827.45;110018;1240;59757;-75
2023/06/16 08:55:14;;;;;;;;;;;;;;;22.21;90.73;96827.68;110284;1242;59662;-78
2023/06/16 08:57:49;;;;;;;;;;;;;;;22.13;88.23;96827.98;110294;1242;69759;-77
2023/06/16 09:00:19;;;;;;;;;;;;;;;22.10;90.91;96824.89;110284;1242;69126;-77
2023/06/16 09:02:55;;;;;;;;;;;;;;;22.00;91.02;96822.37;110264;1240;69243;-74
2023/06/16 09:05:26;;;;;;;;;;;;;;;21.99;91.84;96820.89;110270;1242;59684;-75
2023/06/16 09:07:56;;;;;;;;;;;;;;;21.93;90.95;96817.16;110305;1242;59702;-77
2023/06/16 09:10:25;;;;;;;;;;;;;;;22.03;91.35;96816.15;110303;1240;70641;-76
2023/06/16 09:12:58;;;;;;;;;;;;;;;22.10;91.56;96812.05;110254;1244;69765;-76
2023/06/16 09:15:27;;;;;;;;;;;;;;;22.20;91.18;96807.79;110273;1240;68511;-75
2023/06/16 09:17:58;;;;;;;;;;;;;;;22.29;91.60;96806.98;110300;1243;59737;-76
2023/06/16 09:20:28;;;;;;;;;;;;;;;22.32;91.51;96809.14;110298;1240;59703;-76
2023/06/16 09:23:02;;;;;;;;;;;;;;;22.33;90.90;96808.23;110283;1242;70237;-74
2023/06/16 09:25:32;;;;;;;;;;;;;;;22.37;90.08;96810.50;110287;1242;69262;-75
2023/06/16 09:28:10;;;;;;;;;;;;;;;22.45;90.76;96811.09;110276;1242;68513;-75
2023/06/16 09:30:38;;;;;;;;;;;;;;;22.53;91.21;96805.58;110199;1244;59807;-76
2023/06/16 09:33:11;;;;;;;;;;;;;;;22.67;90.27;96805.70;110290;1241;59819;-75
2023/06/16 09:35:41;;;;;;;;;;;;;;;22.73;90.89;96808.08;110276;1240;70640;-75
2023/06/16 09:38:10;;;;;;;;;;;;;;;22.89;89.53;96804.23;110293;1242;69842;-77
2023/06/16 09:40:39;;;;;;;;;;;;;;;22.95;90.43;96800.35;110306;1240;68421;-75
2023/06/16 09:43:10;;;;;;;;;;;;;;;23.09;89.43;96793.83;110391;1240;59585;-75
2023/06/16 09:45:38;;;;;;;;;;;;;;;23.07;88.07;96788.21;110773;1240;59721;-74
2023/06/16 09:48:08;;;;;;;;;;;;;;;23.14;87.13;96784.20;110266;1240;71418;-76
2023/06/16 09:50:40;;;;;;;;;;;;;;;23.25;86.05;96779.72;110321;1240;69268;-75
2023/06/16 09:53:09;;;;;;;;;;;;;;;23.35;85.72;96782.29;110296;1242;69137;-75
2023/06/16 09:55:38;;;;;;;;;;;;;;;23.44;85.30;96775.96;110259;1241;60075;-75
2023/06/16 09:58:07;;;;;;;;;;;;;;;23.56;84.93;96776.50;110399;1239;59683;-73
2023/06/16 10:00:36;;;;;;;;;;;;;;;23.56;85.90;96769.82;110441;1239;71460;-74
2023/06/16 10:03:07;;;;;;;;;;;;;;;23.72;85.86;96769.34;110410;1241;69226;-75
2023/06/16 10:05:37;;;;;;;;;;;;;;;23.86;84.56;96767.26;110455;1241;67660;-73
2023/06/16 10:08:06;;;;;;;;;;;;;;;23.96;83.75;96765.21;110393;1241;60158;-75
2023/06/16 10:10:38;;;;;;;;;;;;;;;24.06;82.44;96765.13;110415;1241;59664;-75
2023/06/16 10:13:08;;;;;;;;;;;;;;;24.17;83.09;96764.41;110418;1240;71341;-75
2023/06/16 10:15:38;;;;;;;;;;;;;;;24.25;81.70;96762.52;110428;1240;68473;-75
2023/06/16 10:18:07;;;;;;;;;;;;;;;24.25;80.49;96759.56;110253;1243;68552;-76
2023/06/16 10:20:40;;;;;;;;;;;;;;;24.28;80.69;96755.23;110335;1241;59754;-74
2023/06/16 10:23:10;;;;;;;;;;;;;;;24.26;79.31;96756.68;110311;1240;59757;-74
2023/06/16 10:25:40;;;;;;;;;;;;;;;24.38;80.62;96753.48;110257;1240;72551;-76
2023/06/16 10:28:13;;;;;;;;;;;;;;;24.49;79.67;96758.02;110257;1240;68540;-75
2023/06/16 10:30:43;;;;;;;;;;;;;;;24.53;79.14;96755.98;110375;1241;69879;-76
2023/06/16 10:33:17;;;;;;;;;;;;;;;24.56;78.25;96756.98;110423;1241;59737;-74
2023/06/16 10:35:49;;;;;;;;;;;;;;;24.54;76.83;96753.05;110448;1239;59764;-75
2023/06/16 10:38:20;;;;;;;;;;;;;;;24.58;76.49;96751.02;110484;1239;71417;-74
2023/06/16 10:40:50;;;;;;;;;;;;;;;24.79;77.13;96754.28;110455;1241;69855;-74
2023/06/16 10:43:25;;;;;;;;;;;;;;;24.61;75.57;96755.92;110391;1241;69835;-72
2023/06/16 10:46:29;;;;;;;;;;;;;;;24.80;76.68;96753.77;110314;1240;59687;-76
2023/06/16 10:49:10;;;;;;;;;;;;;;;25.16;75.53;96752.25;111080;1247;59726;-75
2023/06/16 10:51:44;;;;;;;;;;;;;;;25.39;73.88;96747.36;110018;1240;70440;-75
2023/06/16 10:54:14;;;;;;;;;;;;;;;25.73;73.03;96741.16;110482;1240;69078;-76
2023/06/16 10:57:02;;;;;;;;;;;;;;;25.86;71.61;96740.09;110287;1243;68919;-76
2023/06/16 11:00:01;;;;;;;;;;;;;;;25.89;70.66;96736.51;110408;1241;59675;-76
2023/06/16 11:02:33;;;;;;;;;;;;;;;25.86;69.93;96737.86;110274;1242;59695;-77
2023/06/16 11:05:08;;;;;;;;;;;;;;;25.96;71.51;96738.46;110202;1240;71431;-75
2023/06/16 11:08:15;;;;;;;;;;;;;;;25.74;70.18;96735.93;110278;1240;69247;-75
2023/06/16 11:10:54;;;;;;;;;;;;;;;25.81;70.66;96734.88;109642;1247;69893;-76
2023/06/16 11:13:23;;;;;;;;;;;;;;;25.92;69.95;96737.34;109683;1247;59864;-76
2023/06/16 11:15:55;;;;;;;;;;;;;;;26.12;70.51;96733.14;109998;1242;59798;-76
2023/06/16 11:18:28;;;;;;;;;;;;;;;26.41;69.29;96732.35;110295;1240;71242;-77
2023/06/16 11:20:57;;;;;;;;;;;;;;;26.71;68.35;96726.59;110332;1242;69787;-77
2023/06/16 11:23:26;;;;;;;;;;;;;;;26.87;66.25;96719.59;110277;1241;68540;-74
2023/06/16 11:26:02;;;;;;;;;;;;;;;27.19;64.41;96714.46;110248;1241;59873;-75
2023/06/16 11:28:31;;;;;;;;;;;;;;;27.36;63.75;96710.50;110284;1242;59763;-74
2023/06/16 11:31:01;;;;;;;;;;;;;;;27.66;63.30;96712.11;110412;1239;71625;-74
2023/06/16 11:33:30;;;;;;;;;;;;;;;28.02;61.90;96713.29;110359;1242;69654;-74
2023/06/16 11:36:20;;;;;;;;;;;;;;;28.35;61.33;96706.20;110374;1240;68516;-75
2023/06/16 11:39:12;;;;;;;;;;;;;;;28.54;59.93;96703.41;110344;1241;59647;-76
2023/06/16 11:41:41;;;;;;;;;;;;;;;28.62;58.18;96702.73;110407;1240;59718;-75
2023/06/16 11:44:27;;;;;;;;;;;;;;;28.79;58.69;96699.43;110299;1241;71409;-75
2023/06/16 11:46:57;;;;;;;;;;;;;;;28.77;58.38;96694.92;110265;1241;69795;-76
2023/06/16 11:49:26;;;;;;;;;;;;;;;28.58;59.04;96696.23;110271;1243;69837;-75
2023/06/16 11:52:03;;;;;;;;;;;;;;;28.23;57.05;96691.66;110932;1240;59599;-75
2023/06/16 11:54:32;;;;;;;;;;;;;;;28.02;58.76;96690.41;111291;1242;59670;-75
2023/06/16 11:57:01;;;;;;;;;;;;;;;27.70;59.58;96685.48;110272;1240;71356;-75
2023/06/16 11:59:32;;;;;;;;;;;;;;;27.11;60.64;96682.67;110291;1242;69442;-74
2023/06/16 12:02:03;;;;;;;;;;;;;;;26.95;61.82;96682.30;110268;1243;69216;-76
2023/06/16 12:04:31;;;;;;;;;;;;;;;26.80;62.44;96684.09;110284;1241;59743;-76
2023/06/16 12:07:01;;;;;;;;;;;;;;;26.71;63.31;96682.41;110307;1242;60179;-75
2023/06/16 12:09:39;;;;;;;;;;;;;;;26.53;63.44;96683.65;110280;1241;71765;-75
2023/06/16 12:12:08;;;;;;;;;;;;;;;26.42;63.91;96683.06;110326;1242;68767;-74
2023/06/16 12:14:37;;;;;;;;;;;;;;;26.40;64.64;96677.02;110313;1244;68654;-73
2023/06/16 12:17:07;;;;;;;;;;;;;;;26.37;64.27;96674.95;110271;1240;59704;-74
2023/06/16 12:19:36;;;;;;;;;;;;;;;26.33;63.96;96675.44;110299;1243;59655;-75
2023/06/16 12:22:05;;;;;;;;;;;;;;;26.30;63.82;96674.03;110292;1242;71405;-74
2023/06/16 12:24:34;;;;;;;;;;;;;;;25.73;63.53;96669.30;110427;1240;68480;-73
2023/06/16 12:27:05;;;;;;;;;;;;;;;25.53;65.87;96670.99;110442;1239;69314;-75
2023/06/16 12:29:34;;;;;;;;;;;;;;;25.65;67.31;96672.00;110436;1241;59742;-75
2023/06/16 12:32:03;;;;;;;;;;;;;;;25.65;67.48;96671.34;110205;1239;59748;-75
2023/06/16 12:34:35;;;;;;;;;;;;;;;25.44;66.58;96668.86;110423;1241;70655;-76
2023/06/16 12:37:10;;;;;;;;;;;;;;;25.37;67.10;96669.98;110481;1241;68578;-74
2023/06/16 12:39:42;;;;;;;;;;;;;;;25.34;67.37;96668.36;110254;1245;69291;-74
2023/06/16 12:42:12;;;;;;;;;;;;;;;25.25;67.75;96670.82;110321;1240;59745;-75
2023/06/16 12:44:51;;;;;;;;;;;;;;;25.20;69.02;96667.73;110401;1241;60084;-73
2023/06/16 12:47:20;;;;;;;;;;;;;;;24.64;70.85;96672.30;110408;1239;71395;-74
2023/06/16 12:49:53;;;;;;;;;;;;;;;24.29;72.85;96674.46;110319;1241;69843;-74
2023/06/16 12:52:23;;;;;;;;;;;;;;;23.96;73.60;96680.73;110285;1241;69105;-75